sensor_id;sensor_type;location;lat;lon;timestamp;temperature;humidity
42261;DHT22;27926;48.062;7.474;2024-03-29T00:02:08;4.90;99.90
42261;DHT22;27926;48.062;7.474;2024-03-29T00:04:32;4.90;99.90
42261;DHT22;27926;48.062;7.474;2024-03-29T00:06:57;4.90;99.90
42261;DHT22;27926;48.062;7.474;2024-03-29T00:09:22;5.10;99.90
42261;DHT22;27926;48.062;7.474;2024-03-29T00:11:47;5.20;99.90
42261;DHT22;27926;48.062;7.474;2024-03-29T00:14:11;5.30;99.90
42261;DHT22;27926;48.062;7.474;2024-03-29T00:16:36;5.30;99.90
42261;DHT22;27926;48.062;7.474;2024-03-29T00:19:00;5.30;99.90
42261;DHT22;27926;48.062;7.474;2024-03-29T00:21:25;5.30;99.90
42261;DHT22;27926;48.062;7.474;2024-03-29T00:23:49;5.30;99.90
42261;DHT22;27926;48.062;7.474;2024-03-29T00:26:15;5.50;99.90
42261;DHT22;27926;48.062;7.474;2024-03-29T00:28:39;5.20;99.90
42261;DHT22;27926;48.062;7.474;2024-03-29T00:31:04;5.30;99.90
42261;DHT22;27926;48.062;7.474;2024-03-29T00:33:28;5.10;99.90
42261;DHT22;27926;48.062;7.474;2024-03-29T00:35:53;5.10;99.90
42261;DHT22;27926;48.062;7.474;2024-03-29T00:38:17;5.10;99.90
42261;DHT22;27926;48.062;7.474;2024-03-29T00:40:42;5.20;99.90
42261;DHT22;27926;48.062;7.474;2024-03-29T00:43:06;5.10;99.90
42261;DHT22;27926;48.062;7.474;2024-03-29T00:45:31;5.10;99.90
42261;DHT22;27926;48.062;7.474;2024-03-29T00:47:56;5.00;99.90
42261;DHT22;27926;48.062;7.474;2024-03-29T00:50:20;5.00;99.90
42261;DHT22;27926;48.062;7.474;2024-03-29T00:52:45;4.90;99.90
42261;DHT22;27926;48.062;7.474;2024-03-29T00:55:09;4.90;99.90
42261;DHT22;27926;48.062;7.474;2024-03-29T00:57:34;4.90;99.90
42261;DHT22;27926;48.062;7.474;2024-03-29T00:59:58;4.80;99.90
42261;DHT22;27926;48.062;7.474;2024-03-29T01:02:23;4.90;99.90
42261;DHT22;27926;48.062;7.474;2024-03-29T01:04:47;4.90;99.90
42261;DHT22;27926;48.062;7.474;2024-03-29T01:07:12;4.90;99.90
42261;DHT22;27926;48.062;7.474;2024-03-29T01:09:40;5.00;99.90
42261;DHT22;27926;48.062;7.474;2024-03-29T01:12:05;5.10;99.90
42261;DHT22;27926;48.062;7.474;2024-03-29T01:14:32;5.10;99.90
42261;DHT22;27926;48.062;7.474;2024-03-29T01:16:57;5.20;99.90
42261;DHT22;27926;48.062;7.474;2024-03-29T01:19:21;5.20;99.90
42261;DHT22;27926;48.062;7.474;2024-03-29T01:21:46;5.20;99.90
42261;DHT22;27926;48.062;7.474;2024-03-29T01:24:10;5.20;99.90
42261;DHT22;27926;48.062;7.474;2024-03-29T01:26:35;5.20;99.90
42261;DHT22;27926;48.062;7.474;2024-03-29T01:28:59;5.20;99.90
42261;DHT22;27926;48.062;7.474;2024-03-29T01:31:24;5.30;99.90
42261;DHT22;27926;48.062;7.474;2024-03-29T01:33:49;5.30;99.90
42261;DHT22;27926;48.062;7.474;2024-03-29T01:36:13;5.40;99.90
42261;DHT22;27926;48.062;7.474;2024-03-29T01:38:38;5.40;99.90
42261;DHT22;27926;48.062;7.474;2024-03-29T01:41:03;5.40;99.90
42261;DHT22;27926;48.062;7.474;2024-03-29T01:43:27;5.50;99.90
42261;DHT22;27926;48.062;7.474;2024-03-29T01:45:53;5.50;99.90
42261;DHT22;27926;48.062;7.474;2024-03-29T01:48:17;5.50;99.90
42261;DHT22;27926;48.062;7.474;2024-03-29T01:50:42;5.40;99.90
42261;DHT22;27926;48.062;7.474;2024-03-29T01:53:07;5.30;99.90
42261;DHT22;27926;48.062;7.474;2024-03-29T01:55:32;5.30;99.90
42261;DHT22;27926;48.062;7.474;2024-03-29T01:57:57;5.20;99.90
42261;DHT22;27926;48.062;7.474;2024-03-29T02:00:22;5.20;99.90
42261;DHT22;27926;48.062;7.474;2024-03-29T02:02:47;5.40;99.90
42261;DHT22;27926;48.062;7.474;2024-03-29T02:05:11;5.30;99.90
42261;DHT22;27926;48.062;7.474;2024-03-29T02:07:36;5.50;99.90
42261;DHT22;27926;48.062;7.474;2024-03-29T02:10:01;5.50;99.90
42261;DHT22;27926;48.062;7.474;2024-03-29T02:12:26;5.60;99.90
42261;DHT22;27926;48.062;7.474;2024-03-29T02:14:50;5.70;99.90
42261;DHT22;27926;48.062;7.474;2024-03-29T02:17:15;6.00;99.90
42261;DHT22;27926;48.062;7.474;2024-03-29T02:19:39;5.90;99.90
42261;DHT22;27926;48.062;7.474;2024-03-29T02:22:04;6.10;99.90
42261;DHT22;27926;48.062;7.474;2024-03-29T02:24:30;6.00;99.90
42261;DHT22;27926;48.062;7.474;2024-03-29T02:26:55;6.10;99.90
42261;DHT22;27926;48.062;7.474;2024-03-29T02:29:20;6.20;99.90
42261;DHT22;27926;48.062;7.474;2024-03-29T02:31:44;6.20;99.90
42261;DHT22;27926;48.062;7.474;2024-03-29T02:34:09;6.30;99.90
42261;DHT22;27926;48.062;7.474;2024-03-29T02:36:34;6.30;99.90
42261;DHT22;27926;48.062;7.474;2024-03-29T02:38:58;6.30;99.90
42261;DHT22;27926;48.062;7.474;2024-03-29T02:41:23;6.30;99.90
42261;DHT22;27926;48.062;7.474;2024-03-29T02:43:50;6.40;99.90
42261;DHT22;27926;48.062;7.474;2024-03-29T02:46:15;6.50;99.90
42261;DHT22;27926;48.062;7.474;2024-03-29T02:48:39;6.40;99.90
42261;DHT22;27926;48.062;7.474;2024-03-29T02:51:04;6.40;99.90
42261;DHT22;27926;48.062;7.474;2024-03-29T02:53:28;6.40;99.90
42261;DHT22;27926;48.062;7.474;2024-03-29T02:55:53;6.50;99.90
42261;DHT22;27926;48.062;7.474;2024-03-29T02:58:17;6.50;99.90
42261;DHT22;27926;48.062;7.474;2024-03-29T03:00:42;6.60;99.90
42261;DHT22;27926;48.062;7.474;2024-03-29T03:03:06;6.60;99.90
42261;DHT22;27926;48.062;7.474;2024-03-29T03:05:32;6.60;99.90
42261;DHT22;27926;48.062;7.474;2024-03-29T03:07:57;6.60;99.90
42261;DHT22;27926;48.062;7.474;2024-03-29T03:10:46;6.60;99.90
42261;DHT22;27926;48.062;7.474;2024-03-29T03:13:20;6.60;99.90
42261;DHT22;27926;48.062;7.474;2024-03-29T03:15:45;6.60;99.90
42261;DHT22;27926;48.062;7.474;2024-03-29T03:18:09;6.60;99.90
42261;DHT22;27926;48.062;7.474;2024-03-29T03:20:34;6.60;99.90
42261;DHT22;27926;48.062;7.474;2024-03-29T03:22:59;6.60;99.90
42261;DHT22;27926;48.062;7.474;2024-03-29T03:25:26;6.60;99.90
42261;DHT22;27926;48.062;7.474;2024-03-29T03:27:51;6.60;99.90
42261;DHT22;27926;48.062;7.474;2024-03-29T03:30:16;6.60;99.90
42261;DHT22;27926;48.062;7.474;2024-03-29T03:32:40;6.60;99.90
42261;DHT22;27926;48.062;7.474;2024-03-29T03:35:08;6.60;99.90
42261;DHT22;27926;48.062;7.474;2024-03-29T03:37:32;6.60;99.90
42261;DHT22;27926;48.062;7.474;2024-03-29T03:39:57;6.60;99.90
42261;DHT22;27926;48.062;7.474;2024-03-29T03:42:21;6.60;99.90
42261;DHT22;27926;48.062;7.474;2024-03-29T03:44:46;6.60;99.90
42261;DHT22;27926;48.062;7.474;2024-03-29T03:47:10;6.70;99.90
42261;DHT22;27926;48.062;7.474;2024-03-29T03:49:35;6.70;99.90
42261;DHT22;27926;48.062;7.474;2024-03-29T03:51:59;6.70;99.90
42261;DHT22;27926;48.062;7.474;2024-03-29T03:54:24;6.70;99.90
42261;DHT22;27926;48.062;7.474;2024-03-29T03:56:48;6.70;99.90
42261;DHT22;27926;48.062;7.474;2024-03-29T03:59:14;6.70;99.90
42261;DHT22;27926;48.062;7.474;2024-03-29T04:01:38;6.70;99.90
42261;DHT22;27926;48.062;7.474;2024-03-29T04:04:03;6.70;99.90
42261;DHT22;27926;48.062;7.474;2024-03-29T04:06:27;6.70;99.90
42261;DHT22;27926;48.062;7.474;2024-03-29T04:08:52;6.70;99.90
42261;DHT22;27926;48.062;7.474;2024-03-29T04:11:16;6.70;99.90
42261;DHT22;27926;48.062;7.474;2024-03-29T04:13:42;6.70;99.90
42261;DHT22;27926;48.062;7.474;2024-03-29T04:16:06;6.70;99.90
42261;DHT22;27926;48.062;7.474;2024-03-29T04:18:31;6.70;99.90
42261;DHT22;27926;48.062;7.474;2024-03-29T04:20:57;6.70;99.90
42261;DHT22;27926;48.062;7.474;2024-03-29T04:23:21;6.70;99.90
42261;DHT22;27926;48.062;7.474;2024-03-29T04:25:55;6.60;99.90
42261;DHT22;27926;48.062;7.474;2024-03-29T04:28:20;6.60;99.90
42261;DHT22;27926;48.062;7.474;2024-03-29T04:30:54;6.60;99.90
42261;DHT22;27926;48.062;7.474;2024-03-29T04:33:18;6.50;99.90
42261;DHT22;27926;48.062;7.474;2024-03-29T04:35:56;6.50;99.90
42261;DHT22;27926;48.062;7.474;2024-03-29T04:38:21;6.50;99.90
42261;DHT22;27926;48.062;7.474;2024-03-29T04:40:45;6.50;99.90
42261;DHT22;27926;48.062;7.474;2024-03-29T04:43:10;6.40;99.90
42261;DHT22;27926;48.062;7.474;2024-03-29T04:45:34;6.40;99.90
42261;DHT22;27926;48.062;7.474;2024-03-29T04:47:59;6.30;99.90
42261;DHT22;27926;48.062;7.474;2024-03-29T04:50:23;6.20;99.90
42261;DHT22;27926;48.062;7.474;2024-03-29T04:52:48;6.30;99.90
42261;DHT22;27926;48.062;7.474;2024-03-29T04:55:12;6.20;99.90
42261;DHT22;27926;48.062;7.474;2024-03-29T04:57:37;6.20;99.90
42261;DHT22;27926;48.062;7.474;2024-03-29T05:00:01;6.20;99.90
42261;DHT22;27926;48.062;7.474;2024-03-29T05:02:26;6.20;99.90
42261;DHT22;27926;48.062;7.474;2024-03-29T05:04:51;6.20;99.90
42261;DHT22;27926;48.062;7.474;2024-03-29T05:07:17;6.20;99.90
42261;DHT22;27926;48.062;7.474;2024-03-29T05:09:42;6.40;99.90
42261;DHT22;27926;48.062;7.474;2024-03-29T05:12:06;6.40;99.90
42261;DHT22;27926;48.062;7.474;2024-03-29T05:14:31;6.50;99.90
42261;DHT22;27926;48.062;7.474;2024-03-29T05:16:55;6.60;99.90
42261;DHT22;27926;48.062;7.474;2024-03-29T05:19:20;6.60;99.90
42261;DHT22;27926;48.062;7.474;2024-03-29T05:21:44;6.70;99.90
42261;DHT22;27926;48.062;7.474;2024-03-29T05:24:09;6.80;99.90
42261;DHT22;27926;48.062;7.474;2024-03-29T05:26:33;6.90;99.90
42261;DHT22;27926;48.062;7.474;2024-03-29T05:28:58;7.00;99.90
42261;DHT22;27926;48.062;7.474;2024-03-29T05:31:24;7.10;99.90
42261;DHT22;27926;48.062;7.474;2024-03-29T05:33:48;7.20;99.90
42261;DHT22;27926;48.062;7.474;2024-03-29T05:36:13;7.40;99.90
42261;DHT22;27926;48.062;7.474;2024-03-29T05:38:37;7.50;99.90
42261;DHT22;27926;48.062;7.474;2024-03-29T05:41:02;7.60;99.90
42261;DHT22;27926;48.062;7.474;2024-03-29T05:43:26;7.70;99.90
42261;DHT22;27926;48.062;7.474;2024-03-29T05:45:54;7.80;99.90
42261;DHT22;27926;48.062;7.474;2024-03-29T05:48:18;7.90;99.90
42261;DHT22;27926;48.062;7.474;2024-03-29T05:50:46;7.90;99.90
42261;DHT22;27926;48.062;7.474;2024-03-29T05:53:10;7.90;99.90
42261;DHT22;27926;48.062;7.474;2024-03-29T05:55:35;7.90;99.90
42261;DHT22;27926;48.062;7.474;2024-03-29T05:57:59;7.90;99.90
42261;DHT22;27926;48.062;7.474;2024-03-29T06:00:24;7.90;99.90
42261;DHT22;27926;48.062;7.474;2024-03-29T06:02:49;7.90;99.90
42261;DHT22;27926;48.062;7.474;2024-03-29T06:05:13;7.80;99.90
42261;DHT22;27926;48.062;7.474;2024-03-29T06:07:38;7.80;99.90
42261;DHT22;27926;48.062;7.474;2024-03-29T06:10:03;7.70;99.90
42261;DHT22;27926;48.062;7.474;2024-03-29T06:12:29;7.80;99.90
42261;DHT22;27926;48.062;7.474;2024-03-29T06:14:53;7.80;99.90
42261;DHT22;27926;48.062;7.474;2024-03-29T06:17:36;7.80;99.90
42261;DHT22;27926;48.062;7.474;2024-03-29T06:20:01;7.80;99.90
42261;DHT22;27926;48.062;7.474;2024-03-29T06:22:27;7.70;99.90
42261;DHT22;27926;48.062;7.474;2024-03-29T06:24:55;7.70;99.90
42261;DHT22;27926;48.062;7.474;2024-03-29T06:27:23;7.70;99.90
42261;DHT22;27926;48.062;7.474;2024-03-29T06:29:48;7.80;99.90
42261;DHT22;27926;48.062;7.474;2024-03-29T06:32:12;7.80;99.90
42261;DHT22;27926;48.062;7.474;2024-03-29T06:34:37;7.80;99.90
42261;DHT22;27926;48.062;7.474;2024-03-29T06:37:01;7.80;99.90
42261;DHT22;27926;48.062;7.474;2024-03-29T06:39:26;7.80;99.90
42261;DHT22;27926;48.062;7.474;2024-03-29T06:41:51;7.80;99.90
42261;DHT22;27926;48.062;7.474;2024-03-29T06:44:15;7.80;99.90
42261;DHT22;27926;48.062;7.474;2024-03-29T06:46:40;7.80;99.90
42261;DHT22;27926;48.062;7.474;2024-03-29T06:49:04;7.80;99.90
42261;DHT22;27926;48.062;7.474;2024-03-29T06:51:29;7.80;99.90
42261;DHT22;27926;48.062;7.474;2024-03-29T06:53:54;7.90;99.90
42261;DHT22;27926;48.062;7.474;2024-03-29T06:56:19;7.90;99.90
42261;DHT22;27926;48.062;7.474;2024-03-29T06:58:43;7.90;99.90
42261;DHT22;27926;48.062;7.474;2024-03-29T07:01:08;7.90;99.90
42261;DHT22;27926;48.062;7.474;2024-03-29T07:03:32;7.90;99.90
42261;DHT22;27926;48.062;7.474;2024-03-29T07:05:57;7.90;99.90
42261;DHT22;27926;48.062;7.474;2024-03-29T07:08:21;7.90;99.90
42261;DHT22;27926;48.062;7.474;2024-03-29T07:10:46;7.90;99.90
42261;DHT22;27926;48.062;7.474;2024-03-29T07:13:10;7.80;99.90
42261;DHT22;27926;48.062;7.474;2024-03-29T07:15:35;7.80;99.90
42261;DHT22;27926;48.062;7.474;2024-03-29T07:18:00;7.80;99.90
42261;DHT22;27926;48.062;7.474;2024-03-29T07:20:27;7.80;99.90
42261;DHT22;27926;48.062;7.474;2024-03-29T07:22:51;7.80;99.90
42261;DHT22;27926;48.062;7.474;2024-03-29T07:25:16;7.80;99.90
42261;DHT22;27926;48.062;7.474;2024-03-29T07:27:40;7.80;99.90
42261;DHT22;27926;48.062;7.474;2024-03-29T07:30:06;7.80;99.90
42261;DHT22;27926;48.062;7.474;2024-03-29T07:32:32;7.90;99.90
42261;DHT22;27926;48.062;7.474;2024-03-29T07:34:56;7.80;99.90
42261;DHT22;27926;48.062;7.474;2024-03-29T07:37:22;7.80;99.90
42261;DHT22;27926;48.062;7.474;2024-03-29T07:39:47;7.80;99.90
42261;DHT22;27926;48.062;7.474;2024-03-29T07:42:11;7.80;99.90
42261;DHT22;27926;48.062;7.474;2024-03-29T07:44:36;7.80;99.90
42261;DHT22;27926;48.062;7.474;2024-03-29T07:47:00;7.80;99.90
42261;DHT22;27926;48.062;7.474;2024-03-29T07:49:25;7.80;99.90
42261;DHT22;27926;48.062;7.474;2024-03-29T07:51:49;7.80;99.90
42261;DHT22;27926;48.062;7.474;2024-03-29T07:54:14;7.80;99.90
42261;DHT22;27926;48.062;7.474;2024-03-29T07:56:41;7.90;99.90
42261;DHT22;27926;48.062;7.474;2024-03-29T07:59:05;7.90;99.90
42261;DHT22;27926;48.062;7.474;2024-03-29T08:01:30;7.90;99.90
42261;DHT22;27926;48.062;7.474;2024-03-29T08:03:54;7.90;99.90
42261;DHT22;27926;48.062;7.474;2024-03-29T08:06:19;8.00;99.90
42261;DHT22;27926;48.062;7.474;2024-03-29T08:08:44;8.00;99.90
42261;DHT22;27926;48.062;7.474;2024-03-29T08:11:09;8.00;99.90
42261;DHT22;27926;48.062;7.474;2024-03-29T08:13:34;8.10;99.90
42261;DHT22;27926;48.062;7.474;2024-03-29T08:15:59;8.20;99.90
42261;DHT22;27926;48.062;7.474;2024-03-29T08:18:24;8.20;99.90
42261;DHT22;27926;48.062;7.474;2024-03-29T08:20:49;8.30;99.90
42261;DHT22;27926;48.062;7.474;2024-03-29T08:23:13;8.40;99.90
42261;DHT22;27926;48.062;7.474;2024-03-29T08:25:38;8.50;99.90
42261;DHT22;27926;48.062;7.474;2024-03-29T08:28:03;8.70;99.90
42261;DHT22;27926;48.062;7.474;2024-03-29T08:30:27;8.80;99.90
42261;DHT22;27926;48.062;7.474;2024-03-29T08:32:58;9.00;99.90
42261;DHT22;27926;48.062;7.474;2024-03-29T08:35:24;9.20;99.90
42261;DHT22;27926;48.062;7.474;2024-03-29T08:37:48;9.40;99.90
42261;DHT22;27926;48.062;7.474;2024-03-29T08:40:14;9.60;99.90
42261;DHT22;27926;48.062;7.474;2024-03-29T08:42:39;9.80;99.90
42261;DHT22;27926;48.062;7.474;2024-03-29T08:45:04;10.00;99.90
42261;DHT22;27926;48.062;7.474;2024-03-29T08:47:30;10.20;99.90
42261;DHT22;27926;48.062;7.474;2024-03-29T08:49:55;10.30;99.90
42261;DHT22;27926;48.062;7.474;2024-03-29T08:52:20;10.40;99.90
42261;DHT22;27926;48.062;7.474;2024-03-29T08:54:45;10.50;99.90
42261;DHT22;27926;48.062;7.474;2024-03-29T08:57:09;10.60;99.90
42261;DHT22;27926;48.062;7.474;2024-03-29T08:59:34;10.80;99.90
42261;DHT22;27926;48.062;7.474;2024-03-29T09:02:05;11.10;99.90
42261;DHT22;27926;48.062;7.474;2024-03-29T09:04:32;11.40;99.90
42261;DHT22;27926;48.062;7.474;2024-03-29T09:07:00;11.80;99.90
42261;DHT22;27926;48.062;7.474;2024-03-29T09:09:26;12.10;99.90
42261;DHT22;27926;48.062;7.474;2024-03-29T09:11:51;12.30;99.90
42261;DHT22;27926;48.062;7.474;2024-03-29T09:14:15;12.40;99.90
42261;DHT22;27926;48.062;7.474;2024-03-29T09:16:40;12.30;99.90
42261;DHT22;27926;48.062;7.474;2024-03-29T09:19:05;12.10;99.90
42261;DHT22;27926;48.062;7.474;2024-03-29T09:21:30;12.20;99.90
42261;DHT22;27926;48.062;7.474;2024-03-29T09:23:54;12.40;99.90
42261;DHT22;27926;48.062;7.474;2024-03-29T09:26:19;12.40;99.90
42261;DHT22;27926;48.062;7.474;2024-03-29T09:28:43;12.40;99.90
42261;DHT22;27926;48.062;7.474;2024-03-29T09:31:11;12.40;99.90
42261;DHT22;27926;48.062;7.474;2024-03-29T09:33:35;12.40;99.90
42261;DHT22;27926;48.062;7.474;2024-03-29T09:36:00;12.40;99.90
42261;DHT22;27926;48.062;7.474;2024-03-29T09:38:28;12.30;99.90
42261;DHT22;27926;48.062;7.474;2024-03-29T09:43:47;12.50;99.90
42261;DHT22;27926;48.062;7.474;2024-03-29T09:46:14;12.70;99.90
42261;DHT22;27926;48.062;7.474;2024-03-29T09:48:42;12.80;99.90
42261;DHT22;27926;48.062;7.474;2024-03-29T09:51:09;12.90;99.90
42261;DHT22;27926;48.062;7.474;2024-03-29T09:53:38;13.10;99.90
42261;DHT22;27926;48.062;7.474;2024-03-29T09:56:03;13.20;99.90
42261;DHT22;27926;48.062;7.474;2024-03-29T09:58:28;13.20;99.90
42261;DHT22;27926;48.062;7.474;2024-03-29T10:00:52;13.20;99.90
42261;DHT22;27926;48.062;7.474;2024-03-29T10:03:19;13.40;99.90
42261;DHT22;27926;48.062;7.474;2024-03-29T10:05:44;13.60;99.90
42261;DHT22;27926;48.062;7.474;2024-03-29T10:08:08;13.70;99.90
42261;DHT22;27926;48.062;7.474;2024-03-29T10:10:33;13.70;99.90
42261;DHT22;27926;48.062;7.474;2024-03-29T10:12:57;12.70;99.90
42261;DHT22;27926;48.062;7.474;2024-03-29T10:15:22;13.90;99.90
42261;DHT22;27926;48.062;7.474;2024-03-29T10:17:49;13.90;99.90
42261;DHT22;27926;48.062;7.474;2024-03-29T10:20:17;14.10;99.90
42261;DHT22;27926;48.062;7.474;2024-03-29T10:22:42;14.10;99.90
42261;DHT22;27926;48.062;7.474;2024-03-29T10:25:08;14.20;99.90
42261;DHT22;27926;48.062;7.474;2024-03-29T10:27:33;14.20;99.90
42261;DHT22;27926;48.062;7.474;2024-03-29T10:29:57;14.30;99.90
42261;DHT22;27926;48.062;7.474;2024-03-29T10:32:22;14.50;99.90
42261;DHT22;27926;48.062;7.474;2024-03-29T10:34:48;14.60;99.90
42261;DHT22;27926;48.062;7.474;2024-03-29T10:37:12;14.70;99.90
42261;DHT22;27926;48.062;7.474;2024-03-29T10:39:37;14.90;99.90
42261;DHT22;27926;48.062;7.474;2024-03-29T10:42:06;15.00;99.90
42261;DHT22;27926;48.062;7.474;2024-03-29T10:44:31;15.20;99.90
42261;DHT22;27926;48.062;7.474;2024-03-29T10:46:56;15.30;99.90
42261;DHT22;27926;48.062;7.474;2024-03-29T10:49:27;15.50;99.90
42261;DHT22;27926;48.062;7.474;2024-03-29T10:51:54;15.60;99.90
42261;DHT22;27926;48.062;7.474;2024-03-29T10:54:23;15.70;99.90
42261;DHT22;27926;48.062;7.474;2024-03-29T10:56:50;15.80;99.90
42261;DHT22;27926;48.062;7.474;2024-03-29T10:59:19;15.80;99.90
42261;DHT22;27926;48.062;7.474;2024-03-29T11:01:45;17.00;99.90
42261;DHT22;27926;48.062;7.474;2024-03-29T11:04:17;15.90;99.90
42261;DHT22;27926;48.062;7.474;2024-03-29T11:06:43;15.90;99.90
42261;DHT22;27926;48.062;7.474;2024-03-29T11:09:11;15.90;99.90
42261;DHT22;27926;48.062;7.474;2024-03-29T11:11:37;16.10;99.90
42261;DHT22;27926;48.062;7.474;2024-03-29T11:14:06;16.20;99.90
42261;DHT22;27926;48.062;7.474;2024-03-29T11:16:32;16.30;99.90
42261;DHT22;27926;48.062;7.474;2024-03-29T11:18:57;16.30;99.90
42261;DHT22;27926;48.062;7.474;2024-03-29T11:21:21;16.40;99.90
42261;DHT22;27926;48.062;7.474;2024-03-29T11:23:48;16.40;99.90
42261;DHT22;27926;48.062;7.474;2024-03-29T11:26:13;16.40;99.90
42261;DHT22;27926;48.062;7.474;2024-03-29T11:28:38;16.40;99.90
42261;DHT22;27926;48.062;7.474;2024-03-29T11:31:06;16.30;99.90
42261;DHT22;27926;48.062;7.474;2024-03-29T11:33:32;16.30;99.90
42261;DHT22;27926;48.062;7.474;2024-03-29T11:35:56;16.40;99.90
42261;DHT22;27926;48.062;7.474;2024-03-29T11:38:21;16.40;99.90
42261;DHT22;27926;48.062;7.474;2024-03-29T11:40:54;16.40;99.90
42261;DHT22;27926;48.062;7.474;2024-03-29T11:43:19;16.40;99.90
42261;DHT22;27926;48.062;7.474;2024-03-29T11:45:44;16.60;99.90
42261;DHT22;27926;48.062;7.474;2024-03-29T11:48:09;16.70;99.90
42261;DHT22;27926;48.062;7.474;2024-03-29T11:50:35;16.70;99.90
42261;DHT22;27926;48.062;7.474;2024-03-29T11:53:02;16.80;99.90
42261;DHT22;27926;48.062;7.474;2024-03-29T11:55:26;16.80;99.90
42261;DHT22;27926;48.062;7.474;2024-03-29T11:57:51;17.00;99.90
42261;DHT22;27926;48.062;7.474;2024-03-29T12:00:16;17.30;99.90
42261;DHT22;27926;48.062;7.474;2024-03-29T12:02:40;17.40;99.90
42261;DHT22;27926;48.062;7.474;2024-03-29T12:05:06;17.60;99.90
42261;DHT22;27926;48.062;7.474;2024-03-29T12:07:32;17.70;99.90
42261;DHT22;27926;48.062;7.474;2024-03-29T12:09:57;17.70;99.90
42261;DHT22;27926;48.062;7.474;2024-03-29T12:12:21;17.70;99.90
42261;DHT22;27926;48.062;7.474;2024-03-29T12:14:46;17.60;99.90
42261;DHT22;27926;48.062;7.474;2024-03-29T12:17:12;17.60;99.90
42261;DHT22;27926;48.062;7.474;2024-03-29T12:19:37;17.70;99.90
42261;DHT22;27926;48.062;7.474;2024-03-29T12:22:03;17.90;99.90
42261;DHT22;27926;48.062;7.474;2024-03-29T12:24:28;18.10;99.90
42261;DHT22;27926;48.062;7.474;2024-03-29T12:26:52;18.10;99.90
42261;DHT22;27926;48.062;7.474;2024-03-29T12:29:17;18.30;99.90
42261;DHT22;27926;48.062;7.474;2024-03-29T12:31:41;18.30;99.90
42261;DHT22;27926;48.062;7.474;2024-03-29T12:34:06;18.40;99.90
42261;DHT22;27926;48.062;7.474;2024-03-29T12:36:31;18.30;99.90
42261;DHT22;27926;48.062;7.474;2024-03-29T12:38:58;18.20;99.90
42261;DHT22;27926;48.062;7.474;2024-03-29T12:41:26;18.00;99.90
42261;DHT22;27926;48.062;7.474;2024-03-29T12:43:51;17.70;99.90
42261;DHT22;27926;48.062;7.474;2024-03-29T12:46:15;17.50;99.90
42261;DHT22;27926;48.062;7.474;2024-03-29T12:48:41;17.50;99.90
42261;DHT22;27926;48.062;7.474;2024-03-29T12:51:06;17.60;99.90
42261;DHT22;27926;48.062;7.474;2024-03-29T12:53:31;17.70;99.90
42261;DHT22;27926;48.062;7.474;2024-03-29T12:55:57;17.70;99.90
42261;DHT22;27926;48.062;7.474;2024-03-29T12:58:22;17.70;99.90
42261;DHT22;27926;48.062;7.474;2024-03-29T13:00:47;17.70;99.90
42261;DHT22;27926;48.062;7.474;2024-03-29T13:03:11;17.80;99.90
42261;DHT22;27926;48.062;7.474;2024-03-29T13:05:36;17.70;99.90
42261;DHT22;27926;48.062;7.474;2024-03-29T13:08:04;17.70;99.90
42261;DHT22;27926;48.062;7.474;2024-03-29T13:10:29;17.80;99.90
42261;DHT22;27926;48.062;7.474;2024-03-29T13:12:54;17.80;99.90
42261;DHT22;27926;48.062;7.474;2024-03-29T13:15:19;17.80;99.90
42261;DHT22;27926;48.062;7.474;2024-03-29T13:17:44;18.00;99.90
42261;DHT22;27926;48.062;7.474;2024-03-29T13:20:10;18.30;99.90
42261;DHT22;27926;48.062;7.474;2024-03-29T13:22:35;18.60;99.90
42261;DHT22;27926;48.062;7.474;2024-03-29T13:25:00;18.90;99.90
42261;DHT22;27926;48.062;7.474;2024-03-29T13:27:24;18.80;99.90
42261;DHT22;27926;48.062;7.474;2024-03-29T13:29:48;18.50;99.90
42261;DHT22;27926;48.062;7.474;2024-03-29T13:32:13;18.20;99.90
42261;DHT22;27926;48.062;7.474;2024-03-29T13:34:38;18.00;99.90
42261;DHT22;27926;48.062;7.474;2024-03-29T13:37:02;17.90;99.90
42261;DHT22;27926;48.062;7.474;2024-03-29T13:39:27;17.80;99.90
42261;DHT22;27926;48.062;7.474;2024-03-29T13:41:52;17.60;99.90
42261;DHT22;27926;48.062;7.474;2024-03-29T13:44:17;17.50;99.90
42261;DHT22;27926;48.062;7.474;2024-03-29T13:46:42;17.50;99.90
42261;DHT22;27926;48.062;7.474;2024-03-29T13:49:06;17.50;99.90
42261;DHT22;27926;48.062;7.474;2024-03-29T13:51:31;17.50;99.90
42261;DHT22;27926;48.062;7.474;2024-03-29T13:53:55;17.30;99.90
42261;DHT22;27926;48.062;7.474;2024-03-29T13:56:20;17.30;99.90
42261;DHT22;27926;48.062;7.474;2024-03-29T13:58:45;17.30;99.90
42261;DHT22;27926;48.062;7.474;2024-03-29T14:01:09;17.30;99.90
42261;DHT22;27926;48.062;7.474;2024-03-29T14:03:34;17.20;99.90
42261;DHT22;27926;48.062;7.474;2024-03-29T14:05:58;17.30;99.90
42261;DHT22;27926;48.062;7.474;2024-03-29T14:08:23;17.30;99.90
42261;DHT22;27926;48.062;7.474;2024-03-29T14:10:47;17.40;99.90
42261;DHT22;27926;48.062;7.474;2024-03-29T14:13:13;17.50;99.90
42261;DHT22;27926;48.062;7.474;2024-03-29T14:15:38;17.60;99.90
42261;DHT22;27926;48.062;7.474;2024-03-29T14:18:02;17.70;99.90
42261;DHT22;27926;48.062;7.474;2024-03-29T14:20:27;17.70;99.90
42261;DHT22;27926;48.062;7.474;2024-03-29T14:22:51;17.80;99.90
42261;DHT22;27926;48.062;7.474;2024-03-29T14:25:18;17.70;99.90
42261;DHT22;27926;48.062;7.474;2024-03-29T14:27:43;17.70;99.90
42261;DHT22;27926;48.062;7.474;2024-03-29T14:30:18;17.70;99.90
42261;DHT22;27926;48.062;7.474;2024-03-29T14:32:45;17.80;99.90
42261;DHT22;27926;48.062;7.474;2024-03-29T14:35:10;17.80;99.90
42261;DHT22;27926;48.062;7.474;2024-03-29T14:37:35;17.80;99.90
42261;DHT22;27926;48.062;7.474;2024-03-29T14:40:00;17.70;99.90
42261;DHT22;27926;48.062;7.474;2024-03-29T14:42:24;17.60;99.90
42261;DHT22;27926;48.062;7.474;2024-03-29T14:44:49;17.70;99.90
42261;DHT22;27926;48.062;7.474;2024-03-29T14:47:13;17.60;99.90
42261;DHT22;27926;48.062;7.474;2024-03-29T14:49:41;17.60;99.90
42261;DHT22;27926;48.062;7.474;2024-03-29T14:52:06;17.50;99.90
42261;DHT22;27926;48.062;7.474;2024-03-29T14:54:31;17.50;99.90
42261;DHT22;27926;48.062;7.474;2024-03-29T14:56:55;17.60;99.90
42261;DHT22;27926;48.062;7.474;2024-03-29T14:59:19;17.60;99.90
42261;DHT22;27926;48.062;7.474;2024-03-29T15:01:44;17.60;99.90
42261;DHT22;27926;48.062;7.474;2024-03-29T15:04:08;17.60;99.90
42261;DHT22;27926;48.062;7.474;2024-03-29T15:06:33;17.60;99.90
42261;DHT22;27926;48.062;7.474;2024-03-29T15:08:58;17.60;99.90
42261;DHT22;27926;48.062;7.474;2024-03-29T15:11:22;17.50;99.90
42261;DHT22;27926;48.062;7.474;2024-03-29T15:13:47;17.40;99.90
42261;DHT22;27926;48.062;7.474;2024-03-29T15:16:11;17.40;99.90
42261;DHT22;27926;48.062;7.474;2024-03-29T15:18:36;17.30;99.90
42261;DHT22;27926;48.062;7.474;2024-03-29T15:21:01;17.20;99.90
42261;DHT22;27926;48.062;7.474;2024-03-29T15:23:27;17.20;99.90
42261;DHT22;27926;48.062;7.474;2024-03-29T15:25:53;17.20;99.90
42261;DHT22;27926;48.062;7.474;2024-03-29T15:28:18;17.10;99.90
42261;DHT22;27926;48.062;7.474;2024-03-29T15:31:06;17.00;99.90